sensor_id;sensor_type;location;lat;lon;timestamp;P1;durP1;ratioP1;P2;durP2;ratioP2
79375;SDS011;68846;53.150;18.136;2023-05-29T00:01:00;4.00;;;2.40;;
79375;SDS011;68846;53.150;18.136;2023-05-29T00:03:27;7.00;;;2.80;;
79375;SDS011;68846;53.150;18.136;2023-05-29T00:05:54;5.50;;;2.70;;
79375;SDS011;68846;53.150;18.136;2023-05-29T00:08:21;4.40;;;2.40;;
79375;SDS011;68846;53.150;18.136;2023-05-29T00:10:48;6.00;;;2.20;;
79375;SDS011;68846;53.150;18.136;2023-05-29T00:15:41;6.20;;;2.30;;
79375;SDS011;68846;53.150;18.136;2023-05-29T00:18:08;8.50;;;2.40;;
79375;SDS011;68846;53.150;18.136;2023-05-29T00:23:02;5.60;;;1.80;;
79375;SDS011;68846;53.150;18.136;2023-05-29T00:25:31;3.60;;;1.70;;
79375;SDS011;68846;53.150;18.136;2023-05-29T00:27:58;3.20;;;2.10;;
79375;SDS011;68846;53.150;18.136;2023-05-29T00:30:25;4.70;;;2.20;;
79375;SDS011;68846;53.150;18.136;2023-05-29T00:32:53;6.30;;;2.70;;
79375;SDS011;68846;53.150;18.136;2023-05-29T00:35:20;5.70;;;2.50;;
79375;SDS011;68846;53.150;18.136;2023-05-29T00:37:47;5.70;;;2.00;;
79375;SDS011;68846;53.150;18.136;2023-05-29T00:42:41;5.80;;;2.10;;
79375;SDS011;68846;53.150;18.136;2023-05-29T00:45:08;6.10;;;2.50;;
79375;SDS011;68846;53.150;18.136;2023-05-29T00:47:35;3.90;;;2.20;;
79375;SDS011;68846;53.150;18.136;2023-05-29T00:50:03;5.60;;;2.60;;
79375;SDS011;68846;53.150;18.136;2023-05-29T00:52:31;4.90;;;2.40;;
79375;SDS011;68846;53.150;18.136;2023-05-29T00:54:58;4.40;;;2.10;;
79375;SDS011;68846;53.150;18.136;2023-05-29T00:57:28;3.90;;;2.40;;
79375;SDS011;68846;53.150;18.136;2023-05-29T00:59:56;5.90;;;2.40;;
79375;SDS011;68846;53.150;18.136;2023-05-29T01:05:19;4.80;;;2.40;;
79375;SDS011;68846;53.150;18.136;2023-05-29T01:07:45;5.00;;;2.50;;
79375;SDS011;68846;53.150;18.136;2023-05-29T01:10:13;3.00;;;2.10;;
79375;SDS011;68846;53.150;18.136;2023-05-29T01:12:54;4.90;;;2.30;;
79375;SDS011;68846;53.150;18.136;2023-05-29T01:20:43;4.80;;;2.10;;
79375;SDS011;68846;53.150;18.136;2023-05-29T01:28:30;6.40;;;2.70;;
79375;SDS011;68846;53.150;18.136;2023-05-29T01:31:00;4.70;;;2.60;;
79375;SDS011;68846;53.150;18.136;2023-05-29T01:33:28;6.80;;;2.80;;
79375;SDS011;68846;53.150;18.136;2023-05-29T01:35:55;4.50;;;2.20;;
79375;SDS011;68846;53.150;18.136;2023-05-29T01:38:23;6.50;;;2.90;;
79375;SDS011;68846;53.150;18.136;2023-05-29T01:40:50;6.50;;;2.80;;
79375;SDS011;68846;53.150;18.136;2023-05-29T01:43:18;5.80;;;2.10;;
79375;SDS011;68846;53.150;18.136;2023-05-29T01:45:45;5.60;;;2.10;;
79375;SDS011;68846;53.150;18.136;2023-05-29T01:48:13;6.10;;;2.30;;
79375;SDS011;68846;53.150;18.136;2023-05-29T01:53:10;4.10;;;2.30;;
79375;SDS011;68846;53.150;18.136;2023-05-29T01:55:37;3.80;;;2.30;;
79375;SDS011;68846;53.150;18.136;2023-05-29T01:58:03;4.30;;;2.30;;
79375;SDS011;68846;53.150;18.136;2023-05-29T02:00:33;4.10;;;2.40;;
79375;SDS011;68846;53.150;18.136;2023-05-29T02:03:01;6.20;;;2.40;;
79375;SDS011;68846;53.150;18.136;2023-05-29T02:05:29;4.80;;;2.20;;
79375;SDS011;68846;53.150;18.136;2023-05-29T02:07:56;5.90;;;2.40;;
79375;SDS011;68846;53.150;18.136;2023-05-29T02:12:50;5.00;;;2.10;;
79375;SDS011;68846;53.150;18.136;2023-05-29T02:17:43;4.20;;;2.30;;
79375;SDS011;68846;53.150;18.136;2023-05-29T02:20:11;4.60;;;2.70;;
79375;SDS011;68846;53.150;18.136;2023-05-29T02:25:05;5.70;;;2.20;;
79375;SDS011;68846;53.150;18.136;2023-05-29T02:27:33;3.80;;;1.80;;
79375;SDS011;68846;53.150;18.136;2023-05-29T02:32:27;6.10;;;2.40;;
79375;SDS011;68846;53.150;18.136;2023-05-29T02:34:54;4.20;;;2.30;;
79375;SDS011;68846;53.150;18.136;2023-05-29T02:39:51;5.60;;;2.10;;
79375;SDS011;68846;53.150;18.136;2023-05-29T02:42:18;5.80;;;2.40;;
79375;SDS011;68846;53.150;18.136;2023-05-29T02:44:45;3.20;;;2.20;;
79375;SDS011;68846;53.150;18.136;2023-05-29T02:47:12;4.20;;;2.10;;
79375;SDS011;68846;53.150;18.136;2023-05-29T02:49:39;5.50;;;2.50;;
79375;SDS011;68846;53.150;18.136;2023-05-29T02:52:06;4.40;;;2.40;;
79375;SDS011;68846;53.150;18.136;2023-05-29T02:56:59;4.50;;;2.50;;
79375;SDS011;68846;53.150;18.136;2023-05-29T03:01:53;5.70;;;2.90;;
79375;SDS011;68846;53.150;18.136;2023-05-29T03:04:21;5.60;;;2.50;;
79375;SDS011;68846;53.150;18.136;2023-05-29T03:06:48;3.70;;;2.30;;
79375;SDS011;68846;53.150;18.136;2023-05-29T03:09:15;6.80;;;3.30;;
79375;SDS011;68846;53.150;18.136;2023-05-29T03:11:43;5.10;;;2.70;;
79375;SDS011;68846;53.150;18.136;2023-05-29T03:14:11;6.20;;;2.40;;
79375;SDS011;68846;53.150;18.136;2023-05-29T03:19:04;6.10;;;2.70;;
79375;SDS011;68846;53.150;18.136;2023-05-29T03:21:31;7.30;;;2.90;;
79375;SDS011;68846;53.150;18.136;2023-05-29T03:23:59;5.30;;;2.60;;
79375;SDS011;68846;53.150;18.136;2023-05-29T03:26:27;7.80;;;2.90;;
79375;SDS011;68846;53.150;18.136;2023-05-29T03:31:20;8.00;;;2.60;;
79375;SDS011;68846;53.150;18.136;2023-05-29T03:33:48;6.20;;;3.00;;
79375;SDS011;68846;53.150;18.136;2023-05-29T03:36:22;4.90;;;2.40;;
79375;SDS011;68846;53.150;18.136;2023-05-29T03:41:16;5.20;;;2.80;;
79375;SDS011;68846;53.150;18.136;2023-05-29T03:43:43;5.10;;;2.30;;
79375;SDS011;68846;53.150;18.136;2023-05-29T03:48:36;6.60;;;2.80;;
79375;SDS011;68846;53.150;18.136;2023-05-29T03:53:35;8.30;;;2.90;;
79375;SDS011;68846;53.150;18.136;2023-05-29T03:58:29;7.00;;;2.80;;
79375;SDS011;68846;53.150;18.136;2023-05-29T04:00:56;6.50;;;3.60;;
79375;SDS011;68846;53.150;18.136;2023-05-29T04:03:23;6.60;;;3.30;;
79375;SDS011;68846;53.150;18.136;2023-05-29T04:05:50;8.90;;;4.00;;
79375;SDS011;68846;53.150;18.136;2023-05-29T04:08:17;7.00;;;5.50;;
79375;SDS011;68846;53.150;18.136;2023-05-29T04:13:11;7.80;;;3.20;;
79375;SDS011;68846;53.150;18.136;2023-05-29T04:15:39;7.20;;;2.90;;
79375;SDS011;68846;53.150;18.136;2023-05-29T04:18:05;7.00;;;3.10;;
79375;SDS011;68846;53.150;18.136;2023-05-29T04:20:33;8.40;;;3.20;;
79375;SDS011;68846;53.150;18.136;2023-05-29T04:25:27;9.40;;;3.40;;
79375;SDS011;68846;53.150;18.136;2023-05-29T04:30:22;7.00;;;2.90;;
79375;SDS011;68846;53.150;18.136;2023-05-29T04:35:15;5.50;;;2.70;;
79375;SDS011;68846;53.150;18.136;2023-05-29T04:37:50;10.00;;;3.20;;
79375;SDS011;68846;53.150;18.136;2023-05-29T04:40:17;6.80;;;2.50;;
79375;SDS011;68846;53.150;18.136;2023-05-29T04:42:45;7.10;;;3.20;;
79375;SDS011;68846;53.150;18.136;2023-05-29T04:45:12;7.60;;;2.70;;
79375;SDS011;68846;53.150;18.136;2023-05-29T04:47:40;5.70;;;2.90;;
79375;SDS011;68846;53.150;18.136;2023-05-29T04:50:11;5.90;;;2.80;;
79375;SDS011;68846;53.150;18.136;2023-05-29T04:52:39;5.60;;;2.50;;
79375;SDS011;68846;53.150;18.136;2023-05-29T04:55:08;3.90;;;2.00;;
79375;SDS011;68846;53.150;18.136;2023-05-29T04:57:36;6.50;;;2.90;;
79375;SDS011;68846;53.150;18.136;2023-05-29T05:00:04;7.00;;;3.00;;
79375;SDS011;68846;53.150;18.136;2023-05-29T05:02:34;9.10;;;3.30;;
79375;SDS011;68846;53.150;18.136;2023-05-29T05:05:02;6.50;;;3.10;;
79375;SDS011;68846;53.150;18.136;2023-05-29T05:07:29;7.80;;;2.80;;
79375;SDS011;68846;53.150;18.136;2023-05-29T05:09:56;7.90;;;3.50;;
79375;SDS011;68846;53.150;18.136;2023-05-29T05:12:26;7.50;;;3.00;;
79375;SDS011;68846;53.150;18.136;2023-05-29T05:14:53;10.90;;;3.10;;
79375;SDS011;68846;53.150;18.136;2023-05-29T05:17:21;5.90;;;2.80;;
79375;SDS011;68846;53.150;18.136;2023-05-29T05:19:48;7.00;;;3.80;;
79375;SDS011;68846;53.150;18.136;2023-05-29T05:22:16;13.20;;;3.30;;
79375;SDS011;68846;53.150;18.136;2023-05-29T05:27:10;8.00;;;3.00;;
79375;SDS011;68846;53.150;18.136;2023-05-29T05:32:04;8.80;;;2.90;;
79375;SDS011;68846;53.150;18.136;2023-05-29T05:34:32;7.20;;;2.80;;
79375;SDS011;68846;53.150;18.136;2023-05-29T05:36:59;7.00;;;3.20;;
79375;SDS011;68846;53.150;18.136;2023-05-29T05:39:26;6.60;;;3.40;;
79375;SDS011;68846;53.150;18.136;2023-05-29T05:41:53;8.40;;;3.20;;
79375;SDS011;68846;53.150;18.136;2023-05-29T05:44:40;5.60;;;2.80;;
79375;SDS011;68846;53.150;18.136;2023-05-29T05:47:11;6.40;;;2.80;;
79375;SDS011;68846;53.150;18.136;2023-05-29T05:49:39;6.70;;;2.80;;
79375;SDS011;68846;53.150;18.136;2023-05-29T05:52:07;7.10;;;3.20;;
79375;SDS011;68846;53.150;18.136;2023-05-29T05:54:34;7.30;;;3.20;;
79375;SDS011;68846;53.150;18.136;2023-05-29T05:57:01;9.20;;;2.60;;
79375;SDS011;68846;53.150;18.136;2023-05-29T05:59:29;5.60;;;2.50;;
79375;SDS011;68846;53.150;18.136;2023-05-29T06:01:56;7.60;;;2.20;;
79375;SDS011;68846;53.150;18.136;2023-05-29T06:04:23;5.10;;;2.20;;
79375;SDS011;68846;53.150;18.136;2023-05-29T06:06:51;4.90;;;2.30;;
79375;SDS011;68846;53.150;18.136;2023-05-29T06:09:17;9.90;;;2.40;;
79375;SDS011;68846;53.150;18.136;2023-05-29T06:11:45;5.50;;;2.60;;
79375;SDS011;68846;53.150;18.136;2023-05-29T06:14:12;7.40;;;2.70;;
79375;SDS011;68846;53.150;18.136;2023-05-29T06:16:39;9.60;;;3.40;;
79375;SDS011;68846;53.150;18.136;2023-05-29T06:19:06;8.10;;;3.10;;
79375;SDS011;68846;53.150;18.136;2023-05-29T06:21:40;6.40;;;3.10;;
79375;SDS011;68846;53.150;18.136;2023-05-29T06:24:08;7.60;;;3.10;;
79375;SDS011;68846;53.150;18.136;2023-05-29T06:26:35;8.40;;;2.50;;
79375;SDS011;68846;53.150;18.136;2023-05-29T06:29:05;6.30;;;2.70;;
79375;SDS011;68846;53.150;18.136;2023-05-29T06:31:32;6.70;;;2.50;;
79375;SDS011;68846;53.150;18.136;2023-05-29T06:34:01;8.50;;;2.90;;
79375;SDS011;68846;53.150;18.136;2023-05-29T06:36:28;7.70;;;2.80;;
79375;SDS011;68846;53.150;18.136;2023-05-29T06:38:56;7.60;;;2.80;;
79375;SDS011;68846;53.150;18.136;2023-05-29T06:41:23;10.10;;;2.90;;
79375;SDS011;68846;53.150;18.136;2023-05-29T06:43:51;6.40;;;2.40;;
79375;SDS011;68846;53.150;18.136;2023-05-29T06:46:21;6.00;;;2.70;;
79375;SDS011;68846;53.150;18.136;2023-05-29T06:48:48;7.30;;;2.60;;
79375;SDS011;68846;53.150;18.136;2023-05-29T06:51:16;6.10;;;2.80;;
79375;SDS011;68846;53.150;18.136;2023-05-29T06:53:56;4.00;;;2.10;;
79375;SDS011;68846;53.150;18.136;2023-05-29T06:56:25;6.10;;;2.60;;
79375;SDS011;68846;53.150;18.136;2023-05-29T06:58:52;6.50;;;3.00;;
79375;SDS011;68846;53.150;18.136;2023-05-29T07:01:20;4.70;;;2.40;;
79375;SDS011;68846;53.150;18.136;2023-05-29T07:03:54;5.50;;;2.80;;
79375;SDS011;68846;53.150;18.136;2023-05-29T07:06:21;7.70;;;3.10;;
79375;SDS011;68846;53.150;18.136;2023-05-29T07:08:49;9.60;;;3.00;;
79375;SDS011;68846;53.150;18.136;2023-05-29T07:11:16;5.50;;;2.70;;
79375;SDS011;68846;53.150;18.136;2023-05-29T07:13:43;7.80;;;2.70;;
79375;SDS011;68846;53.150;18.136;2023-05-29T07:16:11;7.00;;;2.50;;
79375;SDS011;68846;53.150;18.136;2023-05-29T07:18:38;6.10;;;2.20;;
79375;SDS011;68846;53.150;18.136;2023-05-29T07:21:06;6.20;;;2.40;;
79375;SDS011;68846;53.150;18.136;2023-05-29T07:23:34;5.30;;;2.40;;
79375;SDS011;68846;53.150;18.136;2023-05-29T07:26:02;6.90;;;2.40;;
79375;SDS011;68846;53.150;18.136;2023-05-29T07:28:30;7.60;;;2.90;;
79375;SDS011;68846;53.150;18.136;2023-05-29T07:30:57;6.90;;;2.70;;
79375;SDS011;68846;53.150;18.136;2023-05-29T07:33:24;7.40;;;2.90;;
79375;SDS011;68846;53.150;18.136;2023-05-29T07:35:52;7.10;;;3.20;;
79375;SDS011;68846;53.150;18.136;2023-05-29T07:38:19;6.80;;;2.70;;
79375;SDS011;68846;53.150;18.136;2023-05-29T07:40:48;7.50;;;2.50;;
79375;SDS011;68846;53.150;18.136;2023-05-29T07:43:50;5.10;;;2.80;;
79375;SDS011;68846;53.150;18.136;2023-05-29T07:46:19;6.50;;;3.00;;
79375;SDS011;68846;53.150;18.136;2023-05-29T07:48:46;5.80;;;2.60;;
79375;SDS011;68846;53.150;18.136;2023-05-29T07:51:13;6.10;;;2.60;;
79375;SDS011;68846;53.150;18.136;2023-05-29T07:53:46;5.00;;;2.70;;
79375;SDS011;68846;53.150;18.136;2023-05-29T07:56:13;7.10;;;2.20;;
79375;SDS011;68846;53.150;18.136;2023-05-29T07:58:43;5.80;;;2.30;;
79375;SDS011;68846;53.150;18.136;2023-05-29T08:01:10;6.30;;;2.70;;
79375;SDS011;68846;53.150;18.136;2023-05-29T08:03:37;7.00;;;2.90;;
79375;SDS011;68846;53.150;18.136;2023-05-29T08:08:31;6.70;;;2.60;;
79375;SDS011;68846;53.150;18.136;2023-05-29T08:10:58;4.20;;;2.60;;
79375;SDS011;68846;53.150;18.136;2023-05-29T08:13:25;5.80;;;3.40;;
79375;SDS011;68846;53.150;18.136;2023-05-29T08:15:53;5.70;;;3.10;;
79375;SDS011;68846;53.150;18.136;2023-05-29T08:18:20;7.60;;;3.00;;
79375;SDS011;68846;53.150;18.136;2023-05-29T08:20:47;4.70;;;2.40;;
79375;SDS011;68846;53.150;18.136;2023-05-29T08:23:14;7.40;;;2.60;;
79375;SDS011;68846;53.150;18.136;2023-05-29T08:25:41;6.30;;;2.60;;
79375;SDS011;68846;53.150;18.136;2023-05-29T08:28:32;6.50;;;2.60;;
79375;SDS011;68846;53.150;18.136;2023-05-29T08:31:00;5.20;;;2.60;;
79375;SDS011;68846;53.150;18.136;2023-05-29T08:33:27;7.50;;;2.70;;
79375;SDS011;68846;53.150;18.136;2023-05-29T08:35:54;6.70;;;2.50;;
79375;SDS011;68846;53.150;18.136;2023-05-29T08:38:21;5.50;;;2.30;;
79375;SDS011;68846;53.150;18.136;2023-05-29T08:40:48;4.60;;;2.00;;
79375;SDS011;68846;53.150;18.136;2023-05-29T08:43:16;3.90;;;2.00;;
79375;SDS011;68846;53.150;18.136;2023-05-29T08:45:48;7.80;;;2.20;;
79375;SDS011;68846;53.150;18.136;2023-05-29T08:48:23;6.80;;;2.30;;
79375;SDS011;68846;53.150;18.136;2023-05-29T08:50:53;7.00;;;2.20;;
79375;SDS011;68846;53.150;18.136;2023-05-29T08:53:22;4.50;;;1.90;;
79375;SDS011;68846;53.150;18.136;2023-05-29T08:55:50;6.60;;;2.10;;
79375;SDS011;68846;53.150;18.136;2023-05-29T08:58:19;4.90;;;2.00;;
79375;SDS011;68846;53.150;18.136;2023-05-29T09:00:50;4.20;;;1.90;;
79375;SDS011;68846;53.150;18.136;2023-05-29T09:03:17;6.50;;;2.30;;
79375;SDS011;68846;53.150;18.136;2023-05-29T09:05:46;5.70;;;1.90;;
79375;SDS011;68846;53.150;18.136;2023-05-29T09:08:15;6.10;;;2.40;;
79375;SDS011;68846;53.150;18.136;2023-05-29T09:10:43;4.90;;;2.00;;
79375;SDS011;68846;53.150;18.136;2023-05-29T09:13:11;5.30;;;2.20;;
79375;SDS011;68846;53.150;18.136;2023-05-29T09:15:40;4.90;;;2.10;;
79375;SDS011;68846;53.150;18.136;2023-05-29T09:18:10;4.30;;;2.10;;
79375;SDS011;68846;53.150;18.136;2023-05-29T09:20:37;5.30;;;2.40;;
79375;SDS011;68846;53.150;18.136;2023-05-29T09:23:05;4.20;;;2.10;;
79375;SDS011;68846;53.150;18.136;2023-05-29T09:25:35;3.10;;;2.50;;
79375;SDS011;68846;53.150;18.136;2023-05-29T09:28:06;8.70;;;2.60;;
79375;SDS011;68846;53.150;18.136;2023-05-29T09:30:36;5.10;;;2.50;;
79375;SDS011;68846;53.150;18.136;2023-05-29T09:33:11;5.20;;;2.20;;
79375;SDS011;68846;53.150;18.136;2023-05-29T09:38:06;4.30;;;2.40;;
79375;SDS011;68846;53.150;18.136;2023-05-29T09:40:36;4.80;;;2.20;;
79375;SDS011;68846;53.150;18.136;2023-05-29T09:43:16;4.80;;;2.50;;
79375;SDS011;68846;53.150;18.136;2023-05-29T09:45:45;5.60;;;2.30;;
79375;SDS011;68846;53.150;18.136;2023-05-29T09:48:15;4.00;;;2.40;;
79375;SDS011;68846;53.150;18.136;2023-05-29T09:50:44;6.20;;;2.40;;
79375;SDS011;68846;53.150;18.136;2023-05-29T09:53:17;5.10;;;2.10;;
79375;SDS011;68846;53.150;18.136;2023-05-29T09:55:46;5.90;;;2.50;;
79375;SDS011;68846;53.150;18.136;2023-05-29T09:58:14;4.30;;;2.10;;
79375;SDS011;68846;53.150;18.136;2023-05-29T10:00:42;4.10;;;2.20;;
79375;SDS011;68846;53.150;18.136;2023-05-29T10:03:10;6.10;;;2.80;;
79375;SDS011;68846;53.150;18.136;2023-05-29T10:05:39;4.00;;;2.20;;
79375;SDS011;68846;53.150;18.136;2023-05-29T10:08:09;3.90;;;1.80;;
79375;SDS011;68846;53.150;18.136;2023-05-29T10:10:46;5.00;;;2.20;;
79375;SDS011;68846;53.150;18.136;2023-05-29T10:13:15;5.70;;;2.10;;
79375;SDS011;68846;53.150;18.136;2023-05-29T10:15:45;4.60;;;2.10;;
79375;SDS011;68846;53.150;18.136;2023-05-29T10:18:14;5.80;;;2.10;;
79375;SDS011;68846;53.150;18.136;2023-05-29T10:20:49;6.20;;;2.10;;
79375;SDS011;68846;53.150;18.136;2023-05-29T10:23:23;5.20;;;2.00;;
79375;SDS011;68846;53.150;18.136;2023-05-29T10:25:52;4.00;;;2.30;;
79375;SDS011;68846;53.150;18.136;2023-05-29T10:28:23;4.40;;;2.10;;
79375;SDS011;68846;53.150;18.136;2023-05-29T10:31:00;3.50;;;2.20;;
79375;SDS011;68846;53.150;18.136;2023-05-29T10:36:19;3.60;;;1.70;;
79375;SDS011;68846;53.150;18.136;2023-05-29T10:38:50;4.20;;;2.30;;
79375;SDS011;68846;53.150;18.136;2023-05-29T10:44:03;3.50;;;2.00;;
79375;SDS011;68846;53.150;18.136;2023-05-29T10:49:28;4.30;;;2.20;;
79375;SDS011;68846;53.150;18.136;2023-05-29T10:51:56;4.70;;;2.40;;
79375;SDS011;68846;53.150;18.136;2023-05-29T10:54:24;5.30;;;2.10;;
79375;SDS011;68846;53.150;18.136;2023-05-29T10:56:53;3.00;;;1.90;;
79375;SDS011;68846;53.150;18.136;2023-05-29T10:59:22;4.90;;;2.20;;
79375;SDS011;68846;53.150;18.136;2023-05-29T11:01:54;5.10;;;2.00;;
79375;SDS011;68846;53.150;18.136;2023-05-29T11:06:52;3.60;;;1.80;;
79375;SDS011;68846;53.150;18.136;2023-05-29T11:12:15;3.60;;;1.80;;
79375;SDS011;68846;53.150;18.136;2023-05-29T11:15:06;4.40;;;2.10;;
79375;SDS011;68846;53.150;18.136;2023-05-29T11:25:26;5.00;;;1.70;;
79375;SDS011;68846;53.150;18.136;2023-05-29T11:27:54;5.20;;;2.10;;
79375;SDS011;68846;53.150;18.136;2023-05-29T11:30:21;5.20;;;1.80;;
79375;SDS011;68846;53.150;18.136;2023-05-29T11:32:48;4.40;;;2.10;;
79375;SDS011;68846;53.150;18.136;2023-05-29T11:35:16;4.20;;;1.90;;
79375;SDS011;68846;53.150;18.136;2023-05-29T11:37:46;4.10;;;1.80;;
79375;SDS011;68846;53.150;18.136;2023-05-29T11:40:14;3.60;;;1.80;;
79375;SDS011;68846;53.150;18.136;2023-05-29T11:42:42;4.90;;;2.00;;
79375;SDS011;68846;53.150;18.136;2023-05-29T11:45:18;4.60;;;1.50;;
79375;SDS011;68846;53.150;18.136;2023-05-29T11:47:52;4.10;;;1.80;;
79375;SDS011;68846;53.150;18.136;2023-05-29T11:50:24;4.80;;;1.90;;
79375;SDS011;68846;53.150;18.136;2023-05-29T11:52:52;4.20;;;1.90;;
79375;SDS011;68846;53.150;18.136;2023-05-29T11:55:20;5.00;;;2.00;;
79375;SDS011;68846;53.150;18.136;2023-05-29T11:57:48;6.60;;;2.10;;
79375;SDS011;68846;53.150;18.136;2023-05-29T12:00:16;5.20;;;2.00;;
79375;SDS011;68846;53.150;18.136;2023-05-29T12:02:45;2.60;;;1.80;;
79375;SDS011;68846;53.150;18.136;2023-05-29T12:05:16;4.00;;;1.90;;
79375;SDS011;68846;53.150;18.136;2023-05-29T12:07:52;3.60;;;1.90;;
79375;SDS011;68846;53.150;18.136;2023-05-29T12:10:23;6.30;;;1.90;;
79375;SDS011;68846;53.150;18.136;2023-05-29T12:12:54;4.10;;;1.80;;
79375;SDS011;68846;53.150;18.136;2023-05-29T12:15:25;3.90;;;1.90;;
79375;SDS011;68846;53.150;18.136;2023-05-29T12:17:52;4.20;;;1.90;;
79375;SDS011;68846;53.150;18.136;2023-05-29T12:20:24;3.80;;;1.90;;
79375;SDS011;68846;53.150;18.136;2023-05-29T12:22:58;3.60;;;1.80;;
79375;SDS011;68846;53.150;18.136;2023-05-29T12:25:30;5.00;;;1.80;;
79375;SDS011;68846;53.150;18.136;2023-05-29T12:28:01;3.90;;;1.80;;
79375;SDS011;68846;53.150;18.136;2023-05-29T12:30:28;4.50;;;1.80;;
79375;SDS011;68846;53.150;18.136;2023-05-29T12:32:56;6.00;;;1.90;;
79375;SDS011;68846;53.150;18.136;2023-05-29T12:35:24;5.20;;;1.80;;
79375;SDS011;68846;53.150;18.136;2023-05-29T12:37:56;3.90;;;1.60;;
79375;SDS011;68846;53.150;18.136;2023-05-29T12:40:28;4.00;;;1.60;;
79375;SDS011;68846;53.150;18.136;2023-05-29T12:42:58;3.50;;;1.60;;
79375;SDS011;68846;53.150;18.136;2023-05-29T12:45:26;4.40;;;1.50;;
79375;SDS011;68846;53.150;18.136;2023-05-29T12:48:01;5.50;;;2.10;;
79375;SDS011;68846;53.150;18.136;2023-05-29T12:50:31;3.00;;;1.50;;
79375;SDS011;68846;53.150;18.136;2023-05-29T12:53:00;3.60;;;1.80;;
79375;SDS011;68846;53.150;18.136;2023-05-29T12:55:29;4.20;;;1.60;;
79375;SDS011;68846;53.150;18.136;2023-05-29T12:57:59;3.10;;;1.80;;
79375;SDS011;68846;53.150;18.136;2023-05-29T13:00:27;5.00;;;1.70;;
79375;SDS011;68846;53.150;18.136;2023-05-29T13:02:54;3.90;;;1.70;;
79375;SDS011;68846;53.150;18.136;2023-05-29T13:05:20;3.50;;;1.70;;
79375;SDS011;68846;53.150;18.136;2023-05-29T13:07:49;7.70;;;2.00;;
79375;SDS011;68846;53.150;18.136;2023-05-29T13:10:18;4.20;;;1.60;;
79375;SDS011;68846;53.150;18.136;2023-05-29T13:12:45;3.30;;;1.70;;
79375;SDS011;68846;53.150;18.136;2023-05-29T13:15:13;5.50;;;2.10;;
79375;SDS011;68846;53.150;18.136;2023-05-29T13:17:41;3.60;;;1.80;;
79375;SDS011;68846;53.150;18.136;2023-05-29T13:20:09;4.10;;;1.80;;
79375;SDS011;68846;53.150;18.136;2023-05-29T13:22:37;3.70;;;1.70;;
79375;SDS011;68846;53.150;18.136;2023-05-29T13:25:06;4.00;;;1.70;;
79375;SDS011;68846;53.150;18.136;2023-05-29T13:27:38;3.00;;;1.50;;
79375;SDS011;68846;53.150;18.136;2023-05-29T13:30:08;3.60;;;1.70;;
79375;SDS011;68846;53.150;18.136;2023-05-29T13:32:36;3.10;;;1.50;;
79375;SDS011;68846;53.150;18.136;2023-05-29T13:35:03;5.10;;;1.90;;
79375;SDS011;68846;53.150;18.136;2023-05-29T13:37:30;4.10;;;1.60;;
79375;SDS011;68846;53.150;18.136;2023-05-29T13:39:58;3.40;;;1.80;;
79375;SDS011;68846;53.150;18.136;2023-05-29T13:42:25;3.90;;;1.80;;
79375;SDS011;68846;53.150;18.136;2023-05-29T13:44:52;4.90;;;1.70;;
79375;SDS011;68846;53.150;18.136;2023-05-29T13:47:19;5.00;;;1.90;;
79375;SDS011;68846;53.150;18.136;2023-05-29T13:49:46;3.80;;;1.60;;
79375;SDS011;68846;53.150;18.136;2023-05-29T13:52:13;4.10;;;1.60;;
79375;SDS011;68846;53.150;18.136;2023-05-29T13:54:40;3.70;;;1.60;;
79375;SDS011;68846;53.150;18.136;2023-05-29T13:57:07;3.90;;;1.70;;
79375;SDS011;68846;53.150;18.136;2023-05-29T13:59:34;2.70;;;1.30;;
79375;SDS011;68846;53.150;18.136;2023-05-29T14:02:02;4.00;;;1.80;;
79375;SDS011;68846;53.150;18.136;2023-05-29T14:04:30;3.90;;;2.00;;
79375;SDS011;68846;53.150;18.136;2023-05-29T14:06:57;3.40;;;2.10;;
79375;SDS011;68846;53.150;18.136;2023-05-29T14:09:24;3.40;;;1.80;;
79375;SDS011;68846;53.150;18.136;2023-05-29T14:11:55;3.30;;;1.60;;
79375;SDS011;68846;53.150;18.136;2023-05-29T14:14:23;5.90;;;1.70;;
79375;SDS011;68846;53.150;18.136;2023-05-29T14:16:51;2.90;;;1.60;;
79375;SDS011;68846;53.150;18.136;2023-05-29T14:19:18;4.50;;;1.60;;
79375;SDS011;68846;53.150;18.136;2023-05-29T14:21:45;3.80;;;1.80;;
79375;SDS011;68846;53.150;18.136;2023-05-29T14:24:12;5.50;;;1.60;;
79375;SDS011;68846;53.150;18.136;2023-05-29T14:26:40;5.70;;;1.70;;
79375;SDS011;68846;53.150;18.136;2023-05-29T14:29:10;2.90;;;1.50;;
79375;SDS011;68846;53.150;18.136;2023-05-29T14:31:38;4.70;;;1.50;;
79375;SDS011;68846;53.150;18.136;2023-05-29T14:34:05;4.40;;;1.40;;
79375;SDS011;68846;53.150;18.136;2023-05-29T14:36:32;4.60;;;1.80;;
79375;SDS011;68846;53.150;18.136;2023-05-29T14:38:59;3.20;;;1.70;;
79375;SDS011;68846;53.150;18.136;2023-05-29T14:41:26;3.70;;;1.70;;
79375;SDS011;68846;53.150;18.136;2023-05-29T14:43:53;4.20;;;1.50;;
79375;SDS011;68846;53.150;18.136;2023-05-29T14:46:25;5.00;;;1.90;;
79375;SDS011;68846;53.150;18.136;2023-05-29T14:48:53;3.10;;;1.40;;
79375;SDS011;68846;53.150;18.136;2023-05-29T14:51:20;4.90;;;1.90;;
79375;SDS011;68846;53.150;18.136;2023-05-29T14:53:47;4.80;;;1.60;;
79375;SDS011;68846;53.150;18.136;2023-05-29T14:56:14;4.20;;;1.70;;
79375;SDS011;68846;53.150;18.136;2023-05-29T14:58:41;3.80;;;1.90;;
79375;SDS011;68846;53.150;18.136;2023-05-29T15:01:08;3.10;;;1.30;;
79375;SDS011;68846;53.150;18.136;2023-05-29T15:03:35;2.50;;;1.50;;
79375;SDS011;68846;53.150;18.136;2023-05-29T15:06:02;3.40;;;1.60;;
79375;SDS011;68846;53.150;18.136;2023-05-29T15:08:30;3.50;;;1.60;;
79375;SDS011;68846;53.150;18.136;2023-05-29T15:11:01;4.70;;;1.90;;
79375;SDS011;68846;53.150;18.136;2023-05-29T15:13:31;5.10;;;2.10;;
79375;SDS011;68846;53.150;18.136;2023-05-29T15:15:58;4.50;;;1.70;;
79375;SDS011;68846;53.150;18.136;2023-05-29T15:18:30;4.20;;;1.60;;
79375;SDS011;68846;53.150;18.136;2023-05-29T15:20:57;7.50;;;1.40;;
79375;SDS011;68846;53.150;18.136;2023-05-29T15:23:24;5.00;;;1.60;;
79375;SDS011;68846;53.150;18.136;2023-05-29T15:25:52;4.60;;;1.60;;
79375;SDS011;68846;53.150;18.136;2023-05-29T15:28:20;2.90;;;1.50;;
79375;SDS011;68846;53.150;18.136;2023-05-29T15:30:47;3.00;;;1.40;;
79375;SDS011;68846;53.150;18.136;2023-05-29T15:33:15;4.20;;;1.80;;
79375;SDS011;68846;53.150;18.136;2023-05-29T15:35:41;3.30;;;1.60;;
79375;SDS011;68846;53.150;18.136;2023-05-29T15:38:09;2.30;;;1.40;;
79375;SDS011;68846;53.150;18.136;2023-05-29T15:40:39;2.50;;;1.50;;
79375;SDS011;68846;53.150;18.136;2023-05-29T15:43:06;3.40;;;1.80;;
79375;SDS011;68846;53.150;18.136;2023-05-29T15:45:33;4.50;;;1.90;;
79375;SDS011;68846;53.150;18.136;2023-05-29T15:48:00;4.40;;;1.50;;
79375;SDS011;68846;53.150;18.136;2023-05-29T15:50:28;6.00;;;1.80;;
79375;SDS011;68846;53.150;18.136;2023-05-29T15:52:54;3.80;;;1.80;;
79375;SDS011;68846;53.150;18.136;2023-05-29T15:55:22;3.60;;;1.50;;
79375;SDS011;68846;53.150;18.136;2023-05-29T15:57:49;3.50;;;2.00;;
79375;SDS011;68846;53.150;18.136;2023-05-29T16:00:17;3.80;;;1.80;;
79375;SDS011;68846;53.150;18.136;2023-05-29T16:02:44;3.80;;;1.50;;
79375;SDS011;68846;53.150;18.136;2023-05-29T16:05:11;5.60;;;1.70;;
79375;SDS011;68846;53.150;18.136;2023-05-29T16:07:38;5.50;;;1.80;;
79375;SDS011;68846;53.150;18.136;2023-05-29T16:10:06;4.90;;;2.00;;
79375;SDS011;68846;53.150;18.136;2023-05-29T16:12:33;4.90;;;1.80;;
79375;SDS011;68846;53.150;18.136;2023-05-29T16:15:01;4.10;;;1.70;;
79375;SDS011;68846;53.150;18.136;2023-05-29T16:17:28;3.60;;;1.70;;